Time;durP1;ratioP1;P1;durP2;ratioP2;P2;SDS_P1;SDS_P2;PMS_P1;PMS_P2;Temp;Humidity;BMP_temperature;BMP_pressure;BME280_temperature;BME280_humidity;BME280_pressure;Samples;Min_cycle;Max_cycle;Signal;HPM_P1;HPM_P2
2021/11/17 02:27:39;;;;;;;54.50;32.70;;;;;;;2.55;87.74;101061.95;88033;1291;94751;-66
2021/11/17 02:30:23;;;;;;;54.50;33.80;;;;;;;2.59;87.63;101064.86;88046;1281;77763;-65
2021/11/17 02:32:58;;;;;;;57.90;34.20;;;;;;;2.67;87.76;101063.05;88039;1285;82880;-70
2021/11/17 02:35:37;;;;;;;52.40;32.90;;;;;;;2.73;87.32;101057.48;88034;1285;99569;-68
2021/11/17 02:38:02;;;;;;;54.80;33.40;;;;;;;2.67;87.45;101054.77;88030;1288;89445;-68
2021/11/17 02:40:34;;;;;;;52.80;32.40;;;;;;;2.63;87.16;101053.84;88006;1285;93703;-66
2021/11/17 02:43:04;;;;;;;53.60;31.50;;;;;;;2.57;87.46;101060.36;88053;1289;79749;-68
2021/11/17 02:45:36;;;;;;;52.90;31.70;;;;;;;2.59;87.32;101064.64;88049;1285;82595;-66
2021/11/17 02:48:06;;;;;;;53.00;32.40;;;;;;;2.58;87.32;101064.32;88041;1285;99360;-65
2021/11/17 02:50:41;;;;;;;54.50;31.70;;;;;;;2.57;87.43;101059.79;88055;1285;88406;-65
2021/11/17 02:53:10;;;;;;;54.20;31.90;;;;;;;2.60;87.40;101060.42;88028;1285;95960;-65
2021/11/17 02:56:06;;;;;;;52.80;32.30;;;;;;;2.59;87.78;101059.64;88028;1285;82478;-65
2021/11/17 02:58:31;;;;;;;;;;;;;;;2.67;87.46;101057.89;87930;1288;80557;-65
2021/11/17 03:01:18;;;;;;;56.50;35.10;;;;;;;2.66;87.40;101050.55;88097;1285;100477;-65
2021/11/17 03:03:51;;;;;;;54.90;35.10;;;;;;;2.73;87.55;101053.91;88028;1285;89186;-65
2021/11/17 03:06:27;;;;;;;60.40;32.50;;;;;;;2.67;87.39;101057.07;88054;1285;94622;-64
2021/11/17 03:08:58;;;;;;;54.60;34.70;;;;;;;2.55;87.45;101060.15;88026;1283;76313;-65
2021/11/17 03:11:42;;;;;;;52.20;31.40;;;;;;;2.46;87.53;101055.20;88021;1285;79815;-68
2021/11/17 03:14:25;;;;;;;48.00;30.30;;;;;;;2.43;87.40;101057.22;87943;1285;99718;-68
2021/11/17 03:17:16;;;;;;;52.70;31.10;;;;;;;2.40;87.12;101051.55;88069;1285;86574;-64
2021/11/17 03:19:41;;;;;;;52.80;31.00;;;;;;;2.35;87.53;101053.75;87974;1288;94593;-65
2021/11/17 03:22:20;;;;;;;48.70;30.80;;;;;;;2.34;87.62;101052.09;88010;1290;81730;-65
2021/11/17 03:24:44;;;;;;;54.70;32.50;;;;;;;2.40;87.41;101048.89;87940;1287;82903;-65
2021/11/17 03:27:09;;;;;;;52.40;30.90;;;;;;;2.42;87.40;101049.11;88030;1291;99452;-68
2021/11/17 03:29:42;;;;;;;52.60;32.10;;;;;;;2.50;87.50;101049.55;87973;1288;89321;-68
2021/11/17 03:32:22;;;;;;;51.80;31.70;;;;;;;2.53;87.42;101048.98;87967;1291;93147;-68
2021/11/17 03:35:03;;;;;;;48.90;29.90;;;;;;;2.57;87.26;101049.70;87813;1288;78849;-68
2021/11/17 03:37:55;;;;;;;50.20;32.00;;;;;;;2.61;87.27;101048.86;88045;1288;79968;-65
2021/11/17 03:40:59;;;;;;;53.60;33.00;;;;;;;2.61;87.55;101063.04;88015;1291;97451;-65
2021/11/17 03:43:48;;;;;;;52.70;32.10;;;;;;;2.58;87.32;101058.45;87970;1285;88025;-69
2021/11/17 03:46:31;;;;;;;52.60;33.70;;;;;;;2.50;87.41;101068.52;87986;1285;93628;-65
2021/11/17 03:49:03;;;;;;;56.80;33.60;;;;;;;2.52;87.35;101055.79;88011;1291;81730;-65
2021/11/17 03:51:29;;;;;;;53.30;31.20;;;;;;;2.47;87.39;101068.84;87986;1288;82651;-65
2021/11/17 03:54:03;;;;;;;49.30;29.30;;;;;;;2.46;87.28;101064.77;87985;1288;97727;-68
2021/11/17 03:56:42;;;;;;;48.10;30.20;;;;;;;2.46;87.54;101069.08;87938;1288;90325;-67
2021/11/17 03:59:12;;;;;;;49.30;29.20;;;;;;;2.49;87.46;101071.66;87921;1287;95786;-67
2021/11/17 04:01:51;;;;;;;50.40;30.70;;;;;;;2.49;87.53;101067.34;87990;1288;79584;-67
2021/11/17 04:04:29;;;;;;;48.40;29.80;;;;;;;2.47;87.48;101058.01;87998;1285;80228;-67
2021/11/17 04:06:54;;;;;;;50.50;28.80;;;;;;;2.45;87.64;101062.39;87964;1294;99890;-68
2021/11/17 04:09:29;;;;;;;49.50;31.70;;;;;;;2.47;87.53;101053.54;87959;1287;87781;-68
2021/11/17 04:11:50;;;;;;;48.60;30.10;;;;;;;2.49;87.40;101055.88;87952;1287;94023;-67
2021/11/17 04:14:12;;;;;;;48.70;30.00;;;;;;;2.52;87.41;101051.34;87906;1287;81650;-67
2021/11/17 04:16:43;;;;;;;48.10;29.50;;;;;;;2.49;87.42;101046.45;88008;1287;82537;-69
2021/11/17 04:19:07;;;;;;;49.10;29.80;;;;;;;2.38;87.30;101032.33;88009;1283;99994;-68
2021/11/17 04:21:42;;;;;;;48.60;29.70;;;;;;;2.37;87.28;101028.35;88038;1288;88602;-66
2021/11/17 04:24:12;;;;;;;51.20;29.70;;;;;;;2.29;87.40;101028.46;87999;1288;95146;-66
2021/11/17 04:26:45;;;;;;;50.00;29.50;;;;;;;2.26;87.43;101023.22;87999;1288;80608;-67
2021/11/17 04:29:19;;;;;;;46.70;28.30;;;;;;;2.20;87.32;101027.92;88039;1291;81434;-69
2021/11/17 04:31:58;;;;;;;48.60;28.80;;;;;;;2.28;87.35;101016.27;88033;1288;98081;-69
2021/11/17 04:34:36;;;;;;;51.40;30.30;;;;;;;2.33;87.14;101008.97;88025;1291;88822;-69
2021/11/17 04:37:19;;;;;;;48.00;29.50;;;;;;;2.32;87.36;101002.30;88004;1288;95837;-69
2021/11/17 04:39:55;;;;;;;50.50;30.80;;;;;;;2.24;87.10;101000.42;88019;1291;77330;-70
2021/11/17 04:42:37;;;;;;;50.60;30.70;;;;;;;2.18;87.38;100998.60;88017;1288;83179;-70
2021/11/17 04:45:10;;;;;;;51.10;29.00;;;;;;;2.08;87.20;100997.46;87996;1287;99784;-70
2021/11/17 04:47:42;;;;;;;48.50;29.40;;;;;;;1.97;87.05;100998.01;88023;1291;87389;-70
2021/11/17 04:50:21;;;;;;;52.70;31.10;;;;;;;1.88;87.13;100997.95;88006;1291;95750;-70
2021/11/17 04:52:49;;;;;;;49.00;28.30;;;;;;;1.89;87.15;100993.33;87999;1286;78395;-70
2021/11/17 04:55:27;;;;;;;51.00;30.30;;;;;;;1.78;87.39;101000.88;87926;1287;82630;-70
2021/11/17 04:57:58;;;;;;;48.10;28.60;;;;;;;1.86;87.28;101001.20;87985;1294;98165;-70
2021/11/17 05:00:35;;;;;;;49.50;29.50;;;;;;;1.85;87.19;100993.59;88007;1288;88688;-70
2021/11/17 05:02:58;;;;;;;50.30;29.10;;;;;;;1.89;87.32;100996.64;87999;1288;95000;-69
2021/11/17 05:05:32;;;;;;;51.50;30.00;;;;;;;1.92;87.37;100993.20;87995;1291;79108;-70
2021/11/17 05:07:55;;;;;;;49.20;29.40;;;;;;;1.97;87.37;100994.57;88027;1288;83082;-68
2021/11/17 05:10:32;;;;;;;48.20;29.80;;;;;;;1.94;87.18;100993.09;88018;1288;98024;-68
2021/11/17 05:12:58;;;;;;;51.50;30.60;;;;;;;1.95;87.38;100994.63;88007;1287;89602;-68
2021/11/17 05:15:24;;;;;;;50.00;31.40;;;;;;;1.88;87.25;100995.33;87992;1288;95442;-67
2021/11/17 05:17:48;;;;;;;54.10;32.50;;;;;;;1.78;87.30;100991.48;87989;1287;76886;-67
2021/11/17 05:20:11;;;;;;;47.20;29.00;;;;;;;1.75;87.12;100991.66;88030;1288;83611;-67
2021/11/17 05:22:42;;;;;;;51.30;30.80;;;;;;;1.73;87.05;100985.80;88057;1288;99762;-67
2021/11/17 05:25:21;;;;;;;50.30;29.50;;;;;;;1.63;87.07;100984.09;88020;1288;89479;-67
2021/11/17 05:27:52;;;;;;;53.40;29.50;;;;;;;1.55;87.48;100980.50;88005;1284;95679;-69
2021/11/17 05:30:25;;;;;;;51.80;30.80;;;;;;;1.53;87.24;100979.73;88030;1288;79756;-69
2021/11/17 05:33:00;;;;;;;50.90;30.20;;;;;;;1.55;87.14;100975.70;88043;1290;80553;-70
2021/11/17 05:35:26;;;;;;;51.10;31.10;;;;;;;1.54;87.62;100970.77;88023;1288;100441;-70
2021/11/17 05:37:49;;;;;;;50.90;28.90;;;;;;;1.52;87.36;100975.73;88033;1288;88126;-68
2021/11/17 05:40:26;;;;;;;45.90;28.40;;;;;;;1.51;87.52;100968.52;88038;1288;95699;-68
2021/11/17 05:42:54;;;;;;;49.30;29.60;;;;;;;1.52;87.48;100970.77;88097;1281;77495;-70
2021/11/17 05:45:20;;;;;;;45.30;29.00;;;;;;;1.46;87.48;100972.46;88078;1291;82565;-70
2021/11/17 05:47:44;;;;;;;48.30;30.20;;;;;;;1.37;87.54;100968.77;87969;1294;98628;-70
2021/11/17 05:50:19;;;;;;;48.30;30.10;;;;;;;1.36;87.49;100974.33;88052;1282;85912;-70
2021/11/17 05:52:52;;;;;;;50.60;30.60;;;;;;;1.34;87.56;100973.98;87985;1288;94853;-70
2021/11/17 05:55:32;;;;;;;50.90;31.00;;;;;;;1.34;87.67;100979.09;87978;1287;82114;-70
2021/11/17 05:58:03;;;;;;;51.50;29.70;;;;;;;1.38;87.45;100984.30;87705;1288;82193;-68
2021/11/17 06:00:43;;;;;;;47.50;29.70;;;;;;;1.41;87.36;100986.23;87832;1286;98412;-68
2021/11/17 06:03:12;;;;;;;50.90;29.10;;;;;;;1.42;87.38;100990.54;87987;1288;88151;-70
2021/11/17 06:05:15;;;;;;;47.90;29.00;;;;;;;1.45;87.22;100989.79;88038;1289;93919;-69
2021/11/17 06:07:17;;;;;;;40.40;23.80;;;;;;;1.49;87.54;100988.73;88057;1291;81011;-68
2021/11/17 06:09:23;;;;;;;50.20;29.40;;;;;;;1.52;87.42;100989.27;88084;1291;83373;-68
2021/11/17 06:11:36;;;;;;;47.10;29.00;;;;;;;1.60;87.65;100995.02;88050;1283;97688;-68
2021/11/17 06:13:42;;;;;;;45.70;28.30;;;;;;;1.58;87.42;100996.74;87249;1294;787325;-69
2021/11/17 06:15:49;;;;;;;46.80;29.90;;;;;;;1.61;87.49;100998.12;88014;1294;94733;-70
2021/11/17 06:17:58;;;;;;;49.30;30.70;;;;;;;1.64;87.50;100994.71;87970;1291;77696;-70
2021/11/17 06:20:09;;;;;;;49.40;28.60;;;;;;;1.65;87.53;100993.52;87930;1283;80665;-70
2021/11/17 06:22:18;;;;;;;51.70;29.20;;;;;;;1.61;87.52;100991.55;87912;1287;100082;-70
2021/11/17 06:24:27;;;;;;;48.20;29.20;;;;;;;1.59;87.33;100981.41;87932;1293;87077;-71
2021/11/17 06:26:40;;;;;;;47.60;27.70;;;;;;;1.55;87.50;100982.60;87933;1291;95744;-71
2021/11/17 06:28:48;;;;;;;50.00;29.50;;;;;;;1.52;87.33;100982.52;87988;1290;78201;-71
2021/11/17 06:30:56;;;;;;;49.30;28.90;;;;;;;1.52;87.50;100988.52;88032;1289;82776;-70
2021/11/17 06:33:03;;;;;;;45.20;29.60;;;;;;;1.60;87.80;100986.48;88076;1292;99786;-69
2021/11/17 06:35:13;;;;;;;48.70;29.00;;;;;;;1.71;87.60;100986.66;88012;1291;87715;-70
2021/11/17 06:37:22;;;;;;;46.20;28.00;;;;;;;1.81;87.49;100982.15;88032;1291;93841;-70
2021/11/17 06:39:30;;;;;;;44.50;26.80;;;;;;;1.88;87.67;100986.06;88022;1288;78027;-69
2021/11/17 06:41:36;;;;;;;48.20;29.30;;;;;;;1.95;87.68;100984.30;88023;1291;82587;-70
2021/11/17 06:43:46;;;;;;;49.70;30.90;;;;;;;2.07;87.44;100986.31;88003;1291;99369;-70
2021/11/17 06:45:58;;;;;;;52.00;31.30;;;;;;;2.17;87.28;100981.98;88002;1288;88624;-70
2021/11/17 06:48:05;;;;;;;49.10;28.80;;;;;;;2.25;87.50;100980.64;88019;1291;95537;-69
2021/11/17 06:50:14;;;;;;;46.70;28.90;;;;;;;2.22;87.33;100982.49;88059;1289;77237;-69
2021/11/17 06:52:22;;;;;;;50.30;30.20;;;;;;;2.17;87.16;100982.34;87911;1294;84759;-70
2021/11/17 06:54:28;;;;;;;53.60;29.70;;;;;;;2.30;87.26;100989.12;88003;1291;99713;-70
2021/11/17 06:56:34;;;;;;;44.60;28.50;;;;;;;2.51;87.61;100982.40;88010;1291;87735;-70
2021/11/17 06:58:41;;;;;;;46.90;29.00;;;;;;;2.93;87.36;100978.40;88062;1291;94457;-70
2021/11/17 07:00:51;;;;;;;45.40;28.50;;;;;;;3.21;87.21;100975.91;87985;1290;79185;-69
2021/11/17 07:03:01;;;;;;;45.00;28.80;;;;;;;3.47;87.15;100977.27;88034;1289;83312;-69
2021/11/17 07:05:09;;;;;;;44.90;29.50;;;;;;;3.88;87.00;100977.62;88061;1291;97930;-69
2021/11/17 07:07:16;;;;;;;39.90;28.00;;;;;;;4.27;86.83;100977.94;88056;1288;89404;-69
2021/11/17 07:09:22;;;;;;;41.20;29.00;;;;;;;4.60;86.42;100973.20;88060;1290;95425;-69
2021/11/17 07:11:28;;;;;;;42.10;28.80;;;;;;;4.95;86.12;100970.88;87901;1294;78263;-70
2021/11/17 07:13:37;;;;;;;51.40;33.00;;;;;;;5.16;85.91;100973.52;88047;1290;80271;-70
2021/11/17 07:15:44;;;;;;;48.10;33.80;;;;;;;5.42;85.50;100976.47;88047;1283;100128;-69
2021/11/17 07:17:49;;;;;;;41.30;29.20;;;;;;;5.58;85.24;100972.45;88094;1291;88588;-69
2021/11/17 07:19:55;;;;;;;40.00;27.50;;;;;;;5.87;85.08;100973.83;88041;1288;96435;-69
2021/11/17 07:22:07;;;;;;;44.40;29.80;;;;;;;6.32;84.91;100971.27;88073;1288;77636;-70
2021/11/17 07:24:16;;;;;;;42.70;29.60;;;;;;;6.65;84.47;100969.42;88056;1288;80931;-71
2021/11/17 07:26:22;;;;;;;37.80;28.50;;;;;;;7.01;84.03;100969.24;88048;1289;98973;-69
2021/11/17 07:28:28;;;;;;;36.50;28.40;;;;;;;7.50;83.37;100967.89;88060;1288;86680;-68
2021/11/17 07:30:41;;;;;;;36.10;27.70;;;;;;;7.80;82.86;100973.16;88057;1290;95092;-69
2021/11/17 07:32:48;;;;;;;35.00;27.00;;;;;;;7.87;82.24;100971.09;88033;1288;79646;-70
2021/11/17 07:34:54;;;;;;;36.60;27.60;;;;;;;7.50;81.66;100973.54;87869;1288;82464;-70
2021/11/17 07:37:00;;;;;;;33.30;26.80;;;;;;;7.10;81.80;100978.88;87949;1288;99256;-70
2021/11/17 07:39:08;;;;;;;37.90;27.80;;;;;;;6.75;81.78;100976.39;87936;1294;89589;-70
2021/11/17 07:41:18;;;;;;;36.30;27.00;;;;;;;6.49;81.83;100980.67;87903;1282;94613;-68
2021/11/17 07:47:07;;;;;;;38.30;26.90;;;;;;;6.48;81.54;100978.84;87594;1293;80493;-70
2021/11/17 07:49:18;;;;;;;36.10;27.60;;;;;;;6.56;81.56;100978.38;87822;1287;96522;-71
2021/11/17 08:05:07;;;;;;;34.80;26.00;;;;;;;7.15;79.86;100978.27;86375;1309;80572;-71
2021/11/17 08:07:18;;;;;;;30.90;24.00;;;;;;;7.12;79.53;100975.98;86703;1305;100262;-68
2021/11/17 08:09:24;;;;;;;34.00;25.80;;;;;;;7.05;79.60;100980.27;86808;1305;86625;-67
2021/11/17 08:11:32;;;;;;;35.40;25.20;;;;;;;6.95;79.61;100983.83;86766;1301;95343;-70
2021/11/17 08:13:41;;;;;;;37.90;26.20;;;;;;;6.84;79.87;100983.90;86792;1303;76823;-71
2021/11/17 08:15:47;;;;;;;34.30;25.20;;;;;;;6.84;79.85;100980.31;87234;1303;81492;-71
2021/11/17 08:17:57;;;;;;;37.10;27.70;;;;;;;6.84;79.85;100986.86;87268;1296;97764;-70
2021/11/17 08:20:03;;;;;;;35.70;26.00;;;;;;;7.13;79.91;100987.73;87271;1297;89058;-70
2021/11/17 08:22:10;;;;;;;33.50;25.10;;;;;;;7.52;79.34;100991.66;87228;1294;93077;-67
2021/11/17 08:24:19;;;;;;;33.00;25.00;;;;;;;7.83;78.75;100987.97;87274;1295;80573;-67
2021/11/17 08:42:44;;;;;;;36.10;26.00;;;;;;;8.58;75.24;101006.91;87502;1295;78128;-67
2021/11/17 08:44:51;;;;;;;32.10;25.20;;;;;;;8.57;75.49;101008.48;87598;1290;82830;-67
2021/11/17 08:46:58;;;;;;;30.70;24.90;;;;;;;8.59;74.59;101006.31;87622;1291;100259;-70
2021/11/17 08:49:05;;;;;;;30.80;25.00;;;;;;;8.73;74.76;100999.42;87622;1292;88968;-71
2021/11/17 08:51:16;;;;;;;30.70;25.10;;;;;;;8.90;74.48;100996.91;87641;1295;95483;-68
2021/11/17 08:53:26;;;;;;;33.20;26.40;;;;;;;9.19;74.79;101001.61;87620;1292;77651;-68
2021/11/17 08:55:33;;;;;;;29.40;24.90;;;;;;;9.48;73.60;100993.94;87645;1296;80639;-70
2021/11/17 08:57:41;;;;;;;29.30;24.50;;;;;;;9.67;71.73;100990.07;87604;1286;96434;-70
2021/11/17 08:59:52;;;;;;;29.70;25.50;;;;;;;9.70;72.73;100991.30;87618;1295;88925;-70
2021/11/17 09:02:07;;;;;;;29.40;24.80;;;;;;;9.93;72.83;100990.65;87616;1287;95338;-71
2021/11/17 09:04:14;;;;;;;30.20;25.30;;;;;;;10.08;72.04;100989.89;87625;1287;77645;-71
2021/11/17 09:06:23;;;;;;;30.40;24.50;;;;;;;9.84;72.35;100991.84;87553;1294;82901;-68
2021/11/17 09:08:31;;;;;;;30.80;24.70;;;;;;;9.80;72.01;100990.95;87624;1294;99838;-68
2021/11/17 09:11:54;;;;;;;47.90;35.20;;;;;;;9.77;71.44;100982.07;87606;1291;87762;-71
2021/11/17 09:14:06;;;;;;;30.00;24.20;;;;;;;10.04;71.72;100985.34;87829;1290;92215;-71
2021/11/17 09:16:14;;;;;;;29.90;25.00;;;;;;;10.30;71.80;100978.83;88038;1291;80282;-68
2021/11/17 09:18:23;;;;;;;38.50;32.50;;;;;;;10.19;70.93;100974.64;87873;1295;83297;-68
2021/11/17 09:20:30;;;;;;;28.10;22.40;;;;;;;10.36;69.62;100976.01;87948;1291;99944;-71
2021/11/17 09:22:37;;;;;;;32.30;24.10;;;;;;;10.29;70.20;100971.71;87954;1288;89196;-70
2021/11/17 09:24:44;;;;;;;29.30;23.50;;;;;;;10.31;70.49;100974.17;88016;1291;94875;-71
2021/11/17 09:26:54;;;;;;;27.50;24.10;;;;;;;10.27;69.23;100969.20;88056;1291;81057;-71
2021/11/17 09:29:04;;;;;;;28.30;23.60;;;;;;;10.36;69.50;100966.11;88063;1284;82630;-71
2021/11/17 09:31:11;;;;;;;28.90;25.10;;;;;;;10.44;69.45;100964.56;88026;1288;98832;-69
2021/11/17 09:33:17;;;;;;;29.10;23.80;;;;;;;10.51;69.32;100961.02;88068;1288;89068;-69
2021/11/17 09:36:37;;;;;;;27.30;22.60;;;;;;;10.53;69.17;100956.65;88028;1289;94046;-71
2021/11/17 09:38:49;;;;;;;26.50;22.20;;;;;;;10.75;68.47;100952.90;87965;1291;79753;-71
2021/11/17 09:40:59;;;;;;;26.70;22.10;;;;;;;10.57;67.50;100944.21;88060;1290;81430;-72
2021/11/17 09:43:07;;;;;;;30.70;23.00;;;;;;;10.74;68.16;100950.85;88042;1288;100027;-71
2021/11/17 09:45:14;;;;;;;28.00;23.20;;;;;;;11.08;67.36;100948.13;88032;1281;86573;-70
2021/11/17 09:47:24;;;;;;;25.20;21.50;;;;;;;11.31;67.97;100944.13;88053;1288;93026;-68
2021/11/17 09:49:38;;;;;;;24.20;21.10;;;;;;;11.56;67.93;100939.63;88055;1287;79368;-68
2021/11/17 09:55:51;;;;;;;27.50;20.50;;;;;;;12.00;67.02;100936.29;87722;1292;98170;-71
2021/11/17 09:58:05;;;;;;;25.90;20.20;;;;;;;12.14;65.59;100935.57;87797;1290;86967;-71
2021/11/17 10:00:29;;;;;;;;;;;;;;;11.90;66.49;100933.95;87823;1290;95405;-68
2021/11/17 10:02:43;;;;;;;23.60;20.70;;;;;;;11.83;66.70;100929.59;87807;1290;81384;-67
2021/11/17 10:05:01;;;;;;;23.40;20.40;;;;;;;11.48;66.60;100932.90;87818;1290;81733;-67
2021/11/17 10:10:11;;;;;;;24.80;21.20;;;;;;;10.35;67.09;100932.52;87612;1292;89113;-67
2021/11/17 10:14:53;;;;;;;25.90;22.00;;;;;;;9.87;67.62;100936.30;87634;1288;80077;-71
2021/11/17 10:25:08;;;;;;;29.10;22.90;;;;;;;9.27;68.67;100928.36;86332;1301;86212;-71
2021/11/17 10:27:21;;;;;;;27.80;21.60;;;;;;;9.17;68.55;100924.55;87061;1302;95372;-69
2021/11/17 10:29:33;;;;;;;27.20;22.10;;;;;;;9.01;68.84;100926.23;87182;1286;79670;-67
2021/11/17 10:31:53;;;;;;;30.10;21.90;;;;;;;8.85;69.00;100924.54;87629;1290;82424;-69
2021/11/17 10:34:19;;;;;;;27.10;21.00;;;;;;;8.74;69.24;100925.20;87620;1296;99711;-61
2021/11/17 10:36:29;;;;;;;28.20;21.60;;;;;;;8.67;69.46;100932.73;87823;1291;89740;-67
2021/11/17 10:38:46;;;;;;;27.70;22.30;;;;;;;8.59;69.64;100932.36;87803;1287;91941;-68
2021/11/17 10:40:57;;;;;;;27.40;22.20;;;;;;;8.48;69.71;100931.00;87792;1291;80339;-74
2021/11/17 10:43:07;;;;;;;32.10;23.90;;;;;;;8.36;70.01;100932.54;87630;1295;80881;-71
2021/11/17 10:45:33;;;;;;;28.00;22.50;;;;;;;8.28;70.03;100926.20;87616;1290;99896;-70
2021/11/17 10:47:45;;;;;;;29.90;20.70;;;;;;;8.23;70.30;100926.73;87599;1293;89569;-69
2021/11/17 10:49:57;;;;;;;28.50;22.10;;;;;;;8.15;70.60;100925.72;87647;1290;95539;-70
2021/11/17 10:52:10;;;;;;;31.80;22.90;;;;;;;8.12;70.80;100928.40;87657;1297;81200;-71
2021/11/17 10:54:22;;;;;;;30.10;23.30;;;;;;;8.04;70.82;100929.46;87672;1289;82304;-68
2021/11/17 11:05:49;;;;;;;30.50;22.30;;;;;;;7.82;71.73;100928.36;87003;1302;94095;-71
2021/11/17 11:08:01;;;;;;;31.20;23.60;;;;;;;7.70;71.86;100925.39;87089;1302;79639;-67
2021/11/17 11:42:21;;;;;;;31.40;21.90;;;;;;;7.45;73.64;100895.91;85744;1313;94946;-69
2021/11/17 11:44:35;;;;;;;31.10;22.30;;;;;;;7.47;73.65;100893.10;86182;1302;80379;-67
2021/11/17 11:46:41;;;;;;;34.30;24.40;;;;;;;7.36;73.74;100894.91;87294;1296;82116;-68
2021/11/17 11:49:31;;;;;;;32.60;23.40;;;;;;;7.42;73.67;100888.63;87275;1297;99186;-68
2021/11/17 12:07:24;;;;;;;31.90;23.30;;;;;;;7.54;73.92;100875.48;87604;1287;99472;-68
2021/11/17 12:09:38;;;;;;;31.80;23.10;;;;;;;7.47;74.05;100873.14;87615;1290;87239;-68
2021/11/17 12:28:11;;;;;;;33.50;23.50;;;;;;;7.92;74.34;100846.77;86798;1300;86722;-71
2021/11/17 12:30:40;;;;;;;32.10;23.50;;;;;;;7.93;74.27;100847.42;87545;1289;94787;-72
2021/11/17 12:33:00;;;;;;;35.10;25.10;;;;;;;7.98;74.11;100844.02;87613;1293;79717;-72
2021/11/17 12:35:25;;;;;;;34.40;24.30;;;;;;;7.95;73.80;100843.63;87933;1284;83187;-73
2021/11/17 12:37:50;;;;;;;33.40;23.90;;;;;;;7.82;73.85;100838.30;88056;1291;99053;-69
2021/11/17 12:40:04;;;;;;;35.50;24.30;;;;;;;7.74;73.86;100838.61;88032;1288;89583;-64
2021/11/17 12:42:12;;;;;;;39.60;26.50;;;;;;;7.69;74.02;100835.36;88100;1291;95884;-71
2021/11/17 12:44:29;;;;;;;32.30;23.40;;;;;;;7.64;73.95;100835.91;87859;1294;78535;-71
2021/11/17 12:46:40;;;;;;;34.00;24.30;;;;;;;7.57;74.11;100836.04;88060;1287;81399;-71
2021/11/17 12:48:54;;;;;;;34.20;24.20;;;;;;;7.49;74.26;100837.11;88018;1288;99798;-70
2021/11/17 12:51:01;;;;;;;;;;;;;;;7.41;74.40;100833.12;87908;1290;87024;-69
2021/11/17 12:53:20;;;;;;;33.80;23.10;;;;;;;7.30;74.58;100831.02;88058;1288;95252;-70
2021/11/17 13:00:37;;;;;;;34.20;23.80;;;;;;;7.25;74.82;100821.96;88041;1287;80173;-67
2021/11/17 13:02:51;;;;;;;33.90;24.30;;;;;;;7.07;75.20;100821.05;88015;1287;100201;-67
2021/11/17 13:05:20;;;;;;;;;;;;;;;6.99;75.28;100822.64;88101;1288;89018;-66
2021/11/17 13:07:44;;;;;;;34.70;25.50;;;;;;;6.91;75.37;100817.51;88053;1287;93058;-66
2021/11/17 13:12:43;;;;;;;37.10;26.90;;;;;;;6.70;75.70;100820.21;88002;1289;80263;-67
2021/11/17 13:15:21;;;;;;;41.20;28.60;;;;;;;6.58;75.93;100815.91;87904;1290;100307;-68
2021/11/17 13:17:43;;;;;;;41.10;26.60;;;;;;;6.54;76.10;100809.67;88049;1287;89456;-70
2021/11/17 13:19:55;;;;;;;37.10;25.00;;;;;;;6.53;76.25;100811.56;88072;1287;94453;-67
2021/11/17 13:22:18;;;;;;;41.00;26.50;;;;;;;6.51;76.19;100808.83;88064;1287;80873;-67
2021/11/17 13:24:41;;;;;;;39.60;26.40;;;;;;;6.46;76.42;100809.57;88065;1278;79943;-66
2021/11/17 13:27:43;;;;;;;40.70;25.60;;;;;;;6.45;76.63;100812.34;87784;1289;100054;-71
2021/11/17 13:30:00;;;;;;;39.70;28.10;;;;;;;6.47;76.76;100818.42;87948;1288;88146;-71
2021/11/17 13:32:33;;;;;;;40.70;28.90;;;;;;;6.49;76.91;100812.64;88018;1283;94535;-66
2021/11/17 13:34:45;;;;;;;38.70;28.00;;;;;;;6.55;76.89;100813.50;87989;1288;78495;-68
2021/11/17 13:37:32;;;;;;;39.10;28.50;;;;;;;6.54;76.95;100809.48;88030;1288;81422;-67
2021/11/17 13:39:54;;;;;;;38.60;28.00;;;;;;;6.53;77.12;100808.19;88027;1288;97891;-70
2021/11/17 13:42:41;;;;;;;42.40;27.60;;;;;;;6.49;77.27;100811.08;88078;1287;88534;-68
2021/11/17 13:44:57;;;;;;;38.90;26.60;;;;;;;6.53;77.29;100810.67;87921;1287;94429;-67
2021/11/17 13:47:12;;;;;;;38.90;27.10;;;;;;;6.52;77.41;100813.41;88057;1288;79690;-70
2021/11/17 13:49:18;;;;;;;39.60;27.50;;;;;;;6.55;77.51;100813.86;88106;1288;80454;-68
2021/11/17 13:51:27;;;;;;;36.80;27.20;;;;;;;6.60;77.59;100812.13;88038;1288;99617;-70
2021/11/17 13:53:34;;;;;;;40.40;29.50;;;;;;;6.63;77.57;100810.55;88088;1288;89153;-69
2021/11/17 13:55:47;;;;;;;42.90;30.60;;;;;;;6.63;77.67;100806.83;88094;1288;94307;-69
2021/11/17 13:57:57;;;;;;;44.10;29.90;;;;;;;6.66;77.78;100807.92;88058;1282;78657;-69
2021/11/17 14:00:09;;;;;;;41.00;29.40;;;;;;;6.67;77.79;100812.30;88072;1287;80766;-70
2021/11/17 14:02:16;;;;;;;43.20;29.70;;;;;;;6.69;77.76;100813.88;88101;1288;99490;-68
2021/11/17 14:04:22;;;;;;;41.70;29.40;;;;;;;6.69;77.89;100819.97;88060;1289;89240;-69
2021/11/17 14:06:31;;;;;;;42.00;29.50;;;;;;;6.67;77.86;100821.70;88043;1284;95104;-69
2021/11/17 14:08:38;;;;;;;45.20;29.30;;;;;;;6.66;77.79;100820.79;88063;1286;81841;-68
2021/11/17 14:10:47;;;;;;;38.00;26.80;;;;;;;6.65;77.82;100817.58;88042;1283;80569;-70
2021/11/17 14:12:53;;;;;;;40.10;26.80;;;;;;;6.63;77.89;100811.48;87270;1276;1014826;-70
2021/11/17 14:14:59;;;;;;;38.60;27.10;;;;;;;6.66;77.93;100812.12;88056;1288;88493;-70
2021/11/17 14:17:08;;;;;;;45.70;29.80;;;;;;;6.66;78.02;100810.27;88054;1282;94030;-69
2021/11/17 14:19:16;;;;;;;43.80;29.60;;;;;;;6.67;77.96;100811.23;88027;1288;80338;-70
2021/11/17 14:21:26;;;;;;;43.10;30.30;;;;;;;6.69;78.03;100810.53;88067;1287;80344;-67
2021/11/17 14:23:32;;;;;;;42.10;29.20;;;;;;;6.69;77.92;100807.83;88061;1287;98609;-68
2021/11/17 14:25:42;;;;;;;44.80;31.00;;;;;;;6.64;78.01;100809.06;88040;1288;87597;-68
2021/11/17 14:27:54;;;;;;;42.40;29.70;;;;;;;6.55;77.95;100809.04;88057;1286;91907;-71
2021/11/17 14:30:15;;;;;;;41.20;31.70;;;;;;;6.39;78.02;100804.89;88031;1288;77858;-70
2021/11/17 14:32:32;;;;;;;47.70;30.50;;;;;;;6.32;78.20;100805.99;88068;1288;82771;-70
2021/11/17 14:34:40;;;;;;;40.60;28.40;;;;;;;6.24;78.10;100814.83;88112;1288;99992;-67
2021/11/17 14:36:52;;;;;;;43.40;27.60;;;;;;;6.15;78.21;100811.41;88079;1288;86927;-71
2021/11/17 14:39:01;;;;;;;39.50;27.00;;;;;;;6.11;78.28;100812.07;88093;1282;92645;-75
2021/11/17 14:41:11;;;;;;;39.90;26.80;;;;;;;6.08;78.35;100815.00;88013;1287;80809;-67
2021/11/17 14:43:22;;;;;;;41.70;27.30;;;;;;;6.03;78.36;100811.58;88030;1288;80265;-68
2021/11/17 14:45:31;;;;;;;40.50;28.70;;;;;;;6.03;78.47;100811.64;88033;1288;98262;-68
2021/11/17 14:47:38;;;;;;;41.30;29.50;;;;;;;5.97;78.55;100808.05;88033;1285;87827;-67
2021/11/17 14:49:44;;;;;;;51.60;29.60;;;;;;;5.97;78.63;100811.86;88053;1288;93997;-66
2021/11/17 14:51:53;;;;;;;42.80;29.90;;;;;;;5.91;78.52;100808.81;88106;1287;79718;-67
2021/11/17 14:54:03;;;;;;;41.60;29.90;;;;;;;5.84;78.56;100808.21;88094;1284;82276;-68
2021/11/17 14:56:16;;;;;;;46.20;29.00;;;;;;;5.76;78.55;100804.78;88074;1285;98911;-66
2021/11/17 14:58:31;;;;;;;41.70;27.50;;;;;;;5.63;78.66;100801.92;88048;1288;89392;-67
2021/11/17 15:00:42;;;;;;;42.40;29.60;;;;;;;5.58;79.02;100806.02;88065;1285;93957;-71
2021/11/17 15:02:54;;;;;;;46.90;29.50;;;;;;;5.53;79.05;100806.30;88024;1285;80893;-71
2021/11/17 15:05:00;;;;;;;41.60;29.90;;;;;;;5.54;79.09;100806.96;88055;1288;81043;-67
2021/11/17 15:07:10;;;;;;;41.90;29.20;;;;;;;5.44;79.30;100805.76;88072;1285;97640;-73
2021/11/17 15:09:17;;;;;;;43.10;30.80;;;;;;;5.39;79.47;100807.07;88052;1285;87537;-73
2021/11/17 15:11:28;;;;;;;55.20;34.70;;;;;;;5.37;79.56;100813.16;88046;1287;94672;-72
2021/11/17 15:13:35;;;;;;;50.70;33.90;;;;;;;5.36;79.53;100815.56;88026;1287;79058;-67
2021/11/17 15:15:48;;;;;;;50.70;33.80;;;;;;;5.33;79.56;100813.52;88035;1282;80856;-67
2021/11/17 15:17:55;;;;;;;51.60;35.10;;;;;;;5.32;79.58;100815.10;88033;1288;98303;-72